Rowlett, Texas
Current Conditions -  °F | °C
As of 3:55 AM on Saturday 25 Oct 2014 (Local Time) from KF46 Reporting Station
Clear Clear  
Wind Chill: 64°   Ceiling: Unl
Heat Index: 64°   Visibility: 10mi
Dew Point: 59°   Wind: 7mph
Humidity: 86%   Direction: 170°S
Pressure: 30.1"   Gusts: NA
Location:  32.9°N, 96.57°W
Report Text: KF46 250855Z AUTO 17006KT 10SM CLR 18/15 A3010 RMK AO2 T01750152
Loading
Personal Weather Stations






























Interactive Weather Map New forecast layout! Learn more

10-Day Weather Forecast

Advertisements
Track Severe Weather on mobile